Time;durP1;ratioP1;P1;durP2;ratioP2;P2;SDS_P1;SDS_P2;PMS_P1;PMS_P2;Temp;Humidity;BMP_temperature;BMP_pressure;BME280_temperature;BME280_humidity;BME280_pressure;Samples;Min_cycle;Max_cycle;Signal;HPM_P1;HPM_P2
2022/06/23 07:59:33;;;;;;;8.70;7.30;;;;;;;22.76;58.15;100948.59;5305915;27;20401;-73
2022/06/23 08:02:15;;;;;;;19.52;9.13;;;;;;;22.96;58.30;100947.41;5301117;28;20046;-73
2022/06/23 08:05:07;;;;;;;16.75;7.90;;;;;;;23.05;58.56;100949.22;5298716;28;20023;-72
2022/06/23 08:07:39;;;;;;;16.95;7.80;;;;;;;23.15;58.25;100949.44;5280319;28;20029;-73
2022/06/23 08:10:17;;;;;;;9.52;7.50;;;;;;;23.21;58.67;100947.97;5296818;28;20035;-73
2022/06/23 08:13:00;;;;;;;13.57;7.68;;;;;;;23.31;59.13;100952.16;5321493;28;20035;-73
2022/06/23 08:18:48;;;;;;;11.50;6.90;;;;;;;23.36;58.74;100946.19;5300010;28;20127;-73
2022/06/23 08:21:26;;;;;;;11.55;7.28;;;;;;;23.52;58.81;100948.09;5299736;28;20490;-72
2022/06/23 08:24:09;;;;;;;15.80;8.15;;;;;;;23.53;58.83;100935.63;5300069;28;20111;-73
2022/06/23 08:26:50;;;;;;;12.82;6.88;;;;;;;23.73;58.22;100928.72;5298881;28;20030;-72
2022/06/23 08:29:26;;;;;;;14.23;6.20;;;;;;;23.87;57.99;100934.63;5299598;28;20111;-72
2022/06/23 08:31:59;;;;;;;9.80;6.28;;;;;;;23.91;57.61;100934.69;5282315;28;20057;-72
2022/06/23 08:34:33;;;;;;;10.80;6.38;;;;;;;24.06;57.77;100930.09;5299439;28;20055;-73
2022/06/23 08:37:19;;;;;;;13.83;6.10;;;;;;;24.22;57.14;100927.91;5299043;28;20058;-73
2022/06/23 08:39:50;;;;;;;;;;;;;;;24.24;57.14;100924.72;5290006;28;20030;-74
2022/06/23 08:42:56;;;;;;;17.27;6.87;;;;;;;24.27;56.98;100921.91;5300189;28;19912;-75
2022/06/23 08:45:40;;;;;;;15.00;5.55;;;;;;;24.45;57.00;100929.91;5279464;28;20031;-75
2022/06/23 08:48:24;;;;;;;8.60;5.90;;;;;;;24.50;56.99;100930.38;5278469;28;20078;-73
2022/06/23 08:51:12;;;;;;;12.40;5.53;;;;;;;24.63;56.33;100933.00;5298251;28;20024;-73
2022/06/23 08:53:51;;;;;;;10.65;5.90;;;;;;;24.64;56.31;100932.59;5286226;28;20021;-75
2022/06/23 08:56:43;;;;;;;11.75;5.75;;;;;;;24.81;55.95;100924.72;5292672;28;20230;-73
2022/06/23 08:59:32;;;;;;;8.90;5.10;;;;;;;24.95;56.12;100931.41;5319552;28;20507;-73
2022/06/23 09:02:37;;;;;;;9.57;6.55;;;;;;;25.02;56.26;100919.31;5320347;28;20032;-73
2022/06/23 09:05:18;;;;;;;8.38;4.85;;;;;;;25.03;55.67;100920.13;5299726;28;20027;-74
2022/06/23 09:08:18;;;;;;;10.77;5.18;;;;;;;25.15;55.84;100917.84;5317424;28;20047;-74
2022/06/23 09:11:16;;;;;;;5.18;4.18;;;;;;;25.23;55.45;100923.63;5306738;28;20016;-74
2022/06/23 09:14:01;;;;;;;10.20;4.63;;;;;;;25.35;55.30;100921.34;5296654;28;20492;-74
2022/06/23 09:17:03;;;;;;;7.18;4.90;;;;;;;25.40;55.42;100923.03;5287035;28;20038;-76
2022/06/23 09:19:52;;;;;;;8.95;4.40;;;;;;;25.52;56.51;100911.38;5296136;28;20168;-74
2022/06/23 09:22:48;;;;;;;10.45;4.80;;;;;;;25.60;56.19;100915.91;5284751;28;20085;-74
2022/06/23 09:25:32;;;;;;;9.75;6.35;;;;;;;25.67;56.06;100917.19;5308848;28;20024;-74
2022/06/23 09:28:27;;;;;;;6.70;4.45;;;;;;;25.79;55.67;100911.22;5327803;28;20023;-74
2022/06/23 09:31:16;;;;;;;6.67;4.47;;;;;;;25.68;56.52;100913.16;5302750;28;20032;-73
2022/06/23 09:34:01;;;;;;;10.65;5.65;;;;;;;25.68;57.09;100907.47;5285278;28;20032;-73
2022/06/23 09:36:55;;;;;;;8.65;5.68;;;;;;;25.73;57.50;100902.25;5291897;28;20386;-73
2022/06/23 09:39:42;;;;;;;8.98;4.82;;;;;;;25.85;57.47;100906.84;5323964;28;20106;-74
2022/06/23 09:42:28;;;;;;;8.98;4.65;;;;;;;25.81;57.22;100900.28;5306038;28;20119;-72
2022/06/23 09:45:28;;;;;;;8.57;4.60;;;;;;;25.81;56.75;100908.81;5305006;28;20561;-72
2022/06/23 09:48:24;;;;;;;9.00;5.20;;;;;;;25.69;56.97;100895.72;5285454;28;20055;-72
2022/06/23 09:51:22;;;;;;;8.82;4.88;;;;;;;25.96;56.99;100904.09;5284076;28;20448;-73
2022/06/23 09:54:21;;;;;;;6.55;4.75;;;;;;;26.04;56.02;100902.94;5284668;28;20383;-73
2022/06/23 09:57:20;;;;;;;9.40;5.82;;;;;;;25.92;55.97;100898.38;5285632;28;20032;-72
2022/06/23 09:59:57;;;;;;;12.00;5.90;;;;;;;26.01;55.74;100904.53;5305748;28;20048;-72
2022/06/23 10:02:44;;;;;;;10.70;5.93;;;;;;;25.97;55.85;100906.53;5305843;28;20067;-72
2022/06/23 10:05:39;;;;;;;9.23;5.97;;;;;;;25.94;56.00;100895.94;5290664;28;20029;-72
2022/06/23 10:08:36;;;;;;;10.48;5.32;;;;;;;26.09;56.08;100896.06;5284886;28;20460;-72
2022/06/23 10:11:40;;;;;;;9.82;7.28;;;;;;;26.28;55.98;100898.66;5283880;28;20076;-72
2022/06/23 10:14:40;;;;;;;18.23;7.00;;;;;;;26.14;56.16;100898.53;5288598;28;20074;-72
2022/06/23 10:17:24;;;;;;;23.95;7.85;;;;;;;26.39;55.79;100895.88;5305243;28;20028;-71
2022/06/23 10:20:18;;;;;;;10.23;5.78;;;;;;;26.28;55.81;100898.66;5304544;28;20032;-72
2022/06/23 10:23:08;;;;;;;25.90;23.17;;;;;;;26.29;55.57;100894.59;5288251;28;20493;-72
2022/06/23 10:25:53;;;;;;;11.20;6.43;;;;;;;26.45;55.00;100895.06;5298309;28;20051;-73
2022/06/23 10:28:36;;;;;;;10.95;5.68;;;;;;;26.52;55.41;100894.34;5305331;28;20032;-73
2022/06/23 10:31:23;;;;;;;11.60;5.50;;;;;;;26.63;54.50;100891.56;5304886;28;20039;-72
2022/06/23 10:34:22;;;;;;;8.05;4.88;;;;;;;26.77;53.04;100891.63;5304426;28;20107;-71
2022/06/23 10:37:31;;;;;;;15.73;5.28;;;;;;;26.81;52.31;100892.44;5302071;28;20107;-71
2022/06/23 10:40:20;;;;;;;15.10;9.82;;;;;;;26.88;51.92;100875.41;5302049;28;20531;-70
2022/06/23 10:43:16;;;;;;;10.43;4.72;;;;;;;26.89;51.96;100879.06;5304671;28;20032;-71
2022/06/23 10:45:47;;;;;;;8.43;5.28;;;;;;;27.22;51.62;100880.00;5303624;28;20040;-72
2022/06/23 10:48:49;;;;;;;9.40;4.60;;;;;;;27.19;49.66;100877.97;5290717;28;20036;-70
2022/06/23 10:51:56;;;;;;;9.15;4.50;;;;;;;27.12;49.92;100875.88;5304834;28;20286;-72
2022/06/23 10:54:39;;;;;;;8.73;4.82;;;;;;;27.14;50.48;100870.59;5282737;28;20028;-71
2022/06/23 10:57:41;;;;;;;8.52;5.45;;;;;;;27.14;51.41;100864.91;5287442;28;20051;-72
2022/06/23 11:00:20;;;;;;;9.50;4.85;;;;;;;27.01;51.55;100861.63;5318592;28;20122;-72
2022/06/23 11:03:10;;;;;;;9.30;4.63;;;;;;;27.17;51.17;100858.41;5321157;28;20020;-72
2022/06/23 11:05:47;;;;;;;10.00;5.50;;;;;;;27.28;51.40;100867.81;5304513;28;20051;-72
2022/06/23 11:08:58;;;;;;;11.60;4.50;;;;;;;27.36;51.08;100859.31;5303910;28;20024;-72
2022/06/23 11:11:41;;;;;;;10.57;4.80;;;;;;;27.60;51.03;100851.97;5304332;28;20055;-72
2022/06/23 11:14:18;;;;;;;6.82;4.43;;;;;;;27.54;50.31;100855.25;5282442;28;20043;-73
2022/06/23 11:17:08;;;;;;;8.73;4.75;;;;;;;27.67;50.01;100852.81;5287265;28;20032;-73
2022/06/23 11:20:06;;;;;;;6.25;4.53;;;;;;;27.72;49.34;100855.25;5305496;28;20024;-71
2022/06/23 11:23:01;;;;;;;7.63;5.07;;;;;;;27.75;49.78;100853.59;5298982;28;20093;-70
2022/06/23 11:25:55;;;;;;;8.17;5.50;;;;;;;27.69;49.66;100853.22;5302612;28;20028;-68
2022/06/23 11:28:42;;;;;;;7.68;4.85;;;;;;;27.80;49.30;100850.34;5302947;28;20395;-68
2022/06/23 11:31:33;;;;;;;9.05;4.60;;;;;;;27.81;49.62;100845.47;5283226;28;20027;-68
2022/06/23 11:34:27;;;;;;;9.20;4.60;;;;;;;28.02;49.25;100850.34;5283029;28;20039;-68
2022/06/23 11:37:23;;;;;;;6.78;4.60;;;;;;;28.09;48.16;100861.75;5281367;28;20259;-68
2022/06/23 11:40:25;;;;;;;12.50;5.40;;;;;;;28.13;48.07;100856.84;5284266;28;20055;-69
2022/06/23 11:43:11;;;;;;;10.98;7.28;;;;;;;28.11;48.25;100854.41;5281971;28;20032;-68
2022/06/23 11:46:00;;;;;;;9.45;4.82;;;;;;;28.16;47.49;100847.47;5283688;28;20039;-69
2022/06/23 11:48:43;;;;;;;12.05;5.75;;;;;;;28.19;48.36;100847.47;5303685;28;20016;-69
2022/06/23 11:51:37;;;;;;;7.88;4.65;;;;;;;28.09;48.21;100839.75;5302611;28;20032;-69
2022/06/23 11:54:26;;;;;;;7.32;4.57;;;;;;;28.28;48.29;100824.25;5301473;28;20027;-69
2022/06/23 11:57:22;;;;;;;10.70;5.63;;;;;;;28.45;47.63;100836.81;5302666;28;20047;-69
2022/06/23 12:00:08;;;;;;;12.40;5.63;;;;;;;28.59;47.32;100838.81;5293628;28;20157;-68
2022/06/23 12:03:01;;;;;;;;;;;;;;;28.60;47.33;100835.53;5305785;28;20023;-68
2022/06/23 12:05:47;;;;;;;7.95;5.18;;;;;;;28.39;48.36;100829.91;5296209;28;20336;-67
2022/06/23 12:08:35;;;;;;;12.55;5.55;;;;;;;28.63;47.24;100831.03;5302972;28;20093;-68
2022/06/23 12:11:06;;;;;;;9.23;4.88;;;;;;;28.77;46.65;100839.56;5302448;28;20566;-68
2022/06/23 12:13:39;;;;;;;8.05;4.28;;;;;;;28.76;46.30;100826.53;5302498;28;20118;-68
2022/06/23 12:16:10;;;;;;;6.15;4.22;;;;;;;28.80;46.57;100829.34;5303818;28;20028;-69
2022/06/23 12:18:57;;;;;;;8.10;4.32;;;;;;;28.64;46.92;100831.88;5301250;28;20036;-68
2022/06/23 12:21:40;;;;;;;7.35;4.35;;;;;;;28.59;47.40;100828.22;5287769;28;20032;-68
2022/06/23 12:24:47;;;;;;;7.00;4.32;;;;;;;28.74;47.08;100816.75;5282510;28;20054;-69
2022/06/23 12:27:33;;;;;;;10.35;4.40;;;;;;;29.07;46.33;100820.25;5305827;28;20109;-68
2022/06/23 12:30:10;;;;;;;7.80;4.47;;;;;;;28.98;45.36;100818.63;5305343;28;20028;-68
2022/06/23 12:33:05;;;;;;;7.53;4.57;;;;;;;29.11;45.91;100815.34;5309734;28;20090;-68
2022/06/23 12:35:51;;;;;;;8.27;4.22;;;;;;;29.14;45.65;100818.16;5283316;28;20035;-67
2022/06/23 12:38:45;;;;;;;10.10;5.05;;;;;;;29.02;45.17;100816.59;5297040;28;20069;-67
2022/06/23 12:41:24;;;;;;;7.10;4.45;;;;;;;28.98;44.80;100812.13;5301985;28;20044;-69
2022/06/23 12:44:24;;;;;;;6.78;4.63;;;;;;;29.13;45.33;100813.69;5302669;28;20035;-68
2022/06/23 12:47:14;;;;;;;8.48;4.35;;;;;;;29.24;44.75;100811.56;5305890;28;20036;-68
2022/06/23 12:50:08;;;;;;;8.55;4.70;;;;;;;29.34;44.42;100809.03;5301004;28;20036;-68
2022/06/23 12:53:04;;;;;;;8.43;4.10;;;;;;;29.49;44.87;100801.97;5296603;28;20047;-69
2022/06/23 12:56:03;;;;;;;6.65;4.05;;;;;;;29.45;45.13;100796.31;5302980;28;20028;-68
2022/06/23 12:58:46;;;;;;;10.40;5.25;;;;;;;29.53;45.02;100804.78;5306854;28;20418;-68
2022/06/23 13:01:30;;;;;;;6.03;4.57;;;;;;;29.64;43.89;100797.75;5306497;28;20406;-68
2022/06/23 13:04:13;;;;;;;7.00;4.22;;;;;;;29.67;42.71;100793.28;5306484;28;20051;-68
2022/06/23 13:07:04;;;;;;;6.43;4.20;;;;;;;29.75;43.41;100797.69;5306320;28;20039;-68
2022/06/23 13:09:41;;;;;;;8.77;4.22;;;;;;;29.39;43.60;100791.47;5304318;28;20028;-68
2022/06/23 13:12:19;;;;;;;10.95;4.32;;;;;;;29.26;43.59;100791.16;5297016;28;20082;-69
2022/06/23 13:14:54;;;;;;;7.43;4.40;;;;;;;29.44;41.92;100785.28;5306057;28;20352;-67
2022/06/23 13:17:34;;;;;;;18.88;14.65;;;;;;;29.74;42.05;100781.78;5295828;28;20032;-68
2022/06/23 13:20:08;;;;;;;10.00;6.75;;;;;;;30.03;41.18;100778.63;5285389;28;20025;-67
2022/06/23 13:23:11;;;;;;;7.13;3.80;;;;;;;29.92;39.39;100769.38;5300755;28;20029;-67
2022/06/23 13:25:50;;;;;;;6.68;3.85;;;;;;;30.05;40.05;100767.59;5310180;28;20027;-69
2022/06/23 13:28:43;;;;;;;6.45;3.53;;;;;;;30.15;39.45;100769.50;5294293;28;20025;-69
2022/06/23 13:31:24;;;;;;;5.05;3.33;;;;;;;29.91;38.14;100774.25;5285497;28;20020;-68
2022/06/23 13:34:00;;;;;;;5.95;2.90;;;;;;;30.00;37.06;100766.00;5285226;28;20452;-68
2022/06/23 13:36:48;;;;;;;5.28;2.88;;;;;;;30.42;36.71;100763.06;5284793;28;20029;-68
2022/06/23 13:39:30;;;;;;;9.52;3.72;;;;;;;30.49;37.03;100762.97;5299591;28;20490;-68
2022/06/23 13:42:13;;;;;;;5.60;3.53;;;;;;;30.50;37.23;100764.59;5305869;28;20027;-68
2022/06/23 13:44:56;;;;;;;5.88;3.33;;;;;;;30.66;37.17;100756.19;5304405;28;20096;-68
2022/06/23 13:47:35;;;;;;;9.60;3.63;;;;;;;30.94;37.39;100748.47;5289794;28;20133;-69
2022/06/23 13:50:24;;;;;;;5.47;3.25;;;;;;;30.88;37.28;100750.97;5304859;28;20027;-68
2022/06/23 13:53:33;;;;;;;5.53;4.00;;;;;;;31.01;36.90;100748.34;5305866;28;20024;-66
2022/06/23 13:56:26;;;;;;;7.07;3.22;;;;;;;30.94;37.35;100746.41;5304645;28;20016;-66
2022/06/23 13:59:19;;;;;;;5.60;3.30;;;;;;;31.08;36.46;100748.22;5298950;28;20076;-66
2022/06/23 14:02:01;;;;;;;6.38;3.58;;;;;;;31.42;36.38;100750.13;5302487;28;20043;-66
2022/06/23 14:04:36;;;;;;;8.77;3.47;;;;;;;31.39;36.97;100728.09;5305108;28;20020;-66
2022/06/23 14:07:17;;;;;;;7.13;3.10;;;;;;;31.45;36.21;100732.09;5303381;28;20021;-67
2022/06/23 14:09:57;;;;;;;6.38;3.60;;;;;;;31.50;36.33;100730.78;5305701;28;20019;-67
2022/06/23 14:12:38;;;;;;;5.13;3.30;;;;;;;31.54;36.54;100722.91;5305016;28;20023;-67
2022/06/23 14:15:23;;;;;;;8.35;4.55;;;;;;;31.50;36.42;100713.59;5305279;28;20039;-68
2022/06/23 14:18:27;;;;;;;7.88;3.42;;;;;;;31.83;35.31;100715.41;5296368;28;20486;-68
2022/06/23 14:21:23;;;;;;;5.38;3.10;;;;;;;32.01;35.47;100709.34;5284880;28;20075;-67
2022/06/23 14:23:57;;;;;;;5.55;3.22;;;;;;;31.86;34.68;100710.84;5316964;28;20344;-69
2022/06/23 14:26:34;;;;;;;10.57;4.07;;;;;;;31.77;34.75;100713.47;5325984;28;20035;-67
2022/06/23 14:29:16;;;;;;;5.82;2.90;;;;;;;31.72;34.97;100705.38;5322794;28;20024;-67
2022/06/23 14:32:16;;;;;;;5.43;3.03;;;;;;;31.64;35.63;100707.59;5304403;28;20032;-68
2022/06/23 14:35:27;;;;;;;5.93;3.45;;;;;;;31.20;35.85;100698.13;5299246;28;20032;-68
2022/06/23 14:38:20;;;;;;;7.40;3.58;;;;;;;31.56;36.11;100695.44;5284050;28;20398;-71
2022/06/23 14:41:01;;;;;;;6.03;4.15;;;;;;;31.70;35.58;100697.25;5283877;28;20020;-69
2022/06/23 14:44:19;;;;;;;9.88;8.80;;;;;;;31.57;35.01;100694.22;5288945;28;20028;-67
2022/06/23 14:47:07;;;;;;;6.40;3.35;;;;;;;31.11;36.04;100695.81;5302487;28;20043;-67
2022/06/23 14:50:07;;;;;;;4.47;3.45;;;;;;;30.92;37.07;100693.69;5305317;28;20374;-68
2022/06/23 14:53:17;;;;;;;7.72;3.92;;;;;;;30.91;36.58;100692.06;5259415;28;20037;-67
2022/06/23 14:56:06;;;;;;;9.90;8.55;;;;;;;30.82;36.34;100686.88;5258951;28;20174;-68
2022/06/23 14:58:58;;;;;;;15.07;13.65;;;;;;;30.65;36.23;100687.94;5298165;28;20050;-67
2022/06/23 15:01:56;;;;;;;4.50;3.53;;;;;;;30.44;37.23;100683.34;5302213;28;20078;-68
2022/06/23 15:04:48;;;;;;;7.18;5.05;;;;;;;30.45;37.36;100688.66;5258007;28;20059;-68
2022/06/23 15:07:26;;;;;;;10.02;3.50;;;;;;;30.37;38.51;100703.47;5296714;28;20047;-66
2022/06/23 15:10:16;;;;;;;9.07;5.20;;;;;;;30.29;39.57;100719.91;5301045;28;20047;-67
2022/06/23 15:13:13;;;;;;;10.23;8.00;;;;;;;29.90;40.88;100722.00;5284022;28;20037;-67
2022/06/23 15:16:26;;;;;;;6.07;4.18;;;;;;;29.76;42.19;100735.63;5296399;28;20085;-68
2022/06/23 15:19:07;;;;;;;10.38;3.78;;;;;;;29.17;45.74;100739.41;5262485;28;20046;-68
2022/06/23 15:24:41;;;;;;;8.27;3.17;;;;;;;28.12;50.17;100707.81;5304240;28;20036;-67
2022/06/23 15:27:21;;;;;;;9.38;3.25;;;;;;;28.08;48.74;100724.13;5297072;28;20487;-67
2022/06/23 15:30:00;;;;;;;6.13;3.15;;;;;;;27.99;48.63;100720.88;5282611;28;20125;-68
2022/06/23 15:32:41;;;;;;;10.48;3.15;;;;;;;27.87;49.31;100724.19;5291713;28;20086;-68
2022/06/23 15:35:22;;;;;;;7.60;2.97;;;;;;;27.98;48.96;100710.72;5303340;28;20050;-67
2022/06/23 15:38:42;;;;;;;18.98;16.58;;;;;;;28.05;48.46;100724.94;5301016;28;20035;-69
2022/06/23 15:41:34;;;;;;;11.30;9.95;;;;;;;28.27;48.10;100713.44;5246347;28;20044;-67
2022/06/23 15:44:21;;;;;;;6.00;3.70;;;;;;;28.24;47.58;100714.28;5298917;28;20034;-67
2022/06/23 15:47:00;;;;;;;9.20;3.13;;;;;;;28.28;45.79;100715.09;5282830;28;20356;-71
2022/06/23 15:49:50;;;;;;;10.00;2.88;;;;;;;28.12;48.45;100707.81;5282247;28;20042;-66
2022/06/23 15:52:35;;;;;;;6.95;3.05;;;;;;;27.77;47.48;100702.22;5282188;28;20020;-72
2022/06/23 15:55:30;;;;;;;5.05;2.55;;;;;;;27.92;46.46;100698.13;5288226;28;20032;-69
2022/06/23 15:58:16;;;;;;;8.70;4.30;;;;;;;27.85;46.76;100693.25;5282114;28;20403;-68
2022/06/23 16:00:52;;;;;;;12.82;9.48;;;;;;;27.82;44.68;100687.56;5300450;28;20391;-68
2022/06/23 16:03:41;;;;;;;5.82;3.40;;;;;;;28.14;44.83;100678.88;5302653;28;20028;-67
2022/06/23 16:06:12;;;;;;;10.70;7.53;;;;;;;28.42;43.93;100674.25;5303317;28;20039;-72
2022/06/23 16:09:04;;;;;;;7.30;6.43;;;;;;;28.47;43.56;100671.81;5302431;28;20021;-67
2022/06/23 16:11:43;;;;;;;11.48;5.72;;;;;;;28.75;42.42;100661.44;5292062;28;20035;-70
2022/06/23 16:14:21;;;;;;;7.57;3.42;;;;;;;28.78;43.16;100652.03;5303423;28;20028;-70
2022/06/23 16:17:06;;;;;;;6.10;3.05;;;;;;;29.04;42.45;100654.25;5287182;28;20067;-71
2022/06/23 16:19:43;;;;;;;7.15;3.80;;;;;;;29.29;41.38;100656.09;5300795;28;20531;-70
2022/06/23 16:22:35;;;;;;;7.55;2.90;;;;;;;29.59;41.19;100649.66;5306110;28;20405;-70
2022/06/23 16:25:16;;;;;;;5.55;3.53;;;;;;;29.63;40.70;100649.59;5306229;28;20024;-69
2022/06/23 16:28:19;;;;;;;7.97;3.30;;;;;;;29.82;40.74;100651.06;5303576;28;20032;-69
2022/06/23 16:30:52;;;;;;;6.68;3.35;;;;;;;29.94;40.65;100650.50;5299631;28;20111;-69
2022/06/23 16:33:44;;;;;;;8.45;3.20;;;;;;;30.05;40.99;100650.34;5305218;28;20020;-70
2022/06/23 16:36:25;;;;;;;9.05;3.88;;;;;;;30.13;40.63;100640.44;5293852;28;20472;-70
2022/06/23 16:39:20;;;;;;;7.35;3.05;;;;;;;30.26;40.23;100640.69;5292094;28;20078;-69
2022/06/23 16:41:51;;;;;;;;;;;;;;;30.58;40.05;100633.66;5294520;28;20412;-70
2022/06/23 16:44:47;;;;;;;13.80;4.32;;;;;;;30.32;40.11;100628.34;5294772;28;20057;-69
2022/06/23 16:47:51;;;;;;;8.32;3.47;;;;;;;30.45;39.71;100625.72;5296323;28;20076;-70
2022/06/23 16:50:51;;;;;;;8.02;3.72;;;;;;;30.51;39.35;100626.03;5298477;28;20037;-70
2022/06/23 16:53:46;;;;;;;5.57;3.38;;;;;;;30.53;39.70;100632.94;5287318;28;20029;-70
2022/06/23 16:56:37;;;;;;;7.13;3.10;;;;;;;30.56;39.64;100628.41;5286171;28;20028;-70
2022/06/23 16:59:44;;;;;;;5.13;4.10;;;;;;;30.66;39.04;100632.34;5285111;28;20449;-70
2022/06/23 17:02:28;;;;;;;4.15;2.85;;;;;;;30.26;39.57;100630.06;5288562;28;20047;-68
2022/06/23 17:05:02;;;;;;;10.32;3.58;;;;;;;30.28;40.24;100635.38;5307542;28;20092;-68
2022/06/23 17:07:47;;;;;;;5.23;3.30;;;;;;;30.15;40.62;100632.25;5306440;28;20060;-66
2022/06/23 17:10:56;;;;;;;5.73;3.80;;;;;;;30.18;39.90;100634.25;5292937;28;20777;-68
2022/06/23 17:13:34;;;;;;;4.57;2.88;;;;;;;29.89;40.24;100628.09;5285099;28;20031;-67
2022/06/23 17:16:18;;;;;;;7.50;3.38;;;;;;;29.76;40.52;100627.84;5293213;28;20043;-70
2022/06/23 17:19:07;;;;;;;6.57;3.50;;;;;;;29.65;41.14;100618.59;5306367;28;20028;-66
2022/06/23 17:21:46;;;;;;;7.93;3.72;;;;;;;29.55;39.91;100628.06;5288036;28;20055;-67
2022/06/23 17:24:38;;;;;;;8.27;3.10;;;;;;;29.58;40.00;100638.63;5306525;28;20024;-67
2022/06/23 17:27:23;;;;;;;6.03;3.05;;;;;;;29.44;39.63;100643.28;5290070;28;20409;-69
2022/06/23 17:30:19;;;;;;;6.57;3.03;;;;;;;29.48;39.98;100638.34;5284936;28;20116;-71
